createdAt,value
2018-03-06T05:27:05.386Z,5.02
2018-03-06T05:28:05.230Z,5.07
2018-03-06T05:29:58.503Z,5.04
2018-03-06T05:30:58.531Z,5.07
2018-03-06T07:45:25.020Z,6.04
2018-03-06T07:46:25.679Z,6.07
2018-03-06T07:47:46.710Z,6.05
2018-03-06T07:48:39.536Z,6.08
2018-03-06T09:16:35.306Z,7.10
2018-03-06T09:17:36.239Z,7.06
2018-03-06T09:19:27.438Z,7.31
2018-03-06T09:21:27.515Z,7.47
2018-03-06T09:22:27.336Z,7.54
2018-03-06T09:23:27.469Z,7.70
2018-03-06T09:24:27.513Z,7.80
2018-03-06T09:25:27.298Z,7.90
2018-03-06T09:26:27.550Z,8.01
2018-03-06T09:27:28.861Z,8.03
2018-03-06T09:28:31.980Z,8.10
2018-03-06T09:29:28.448Z,8.18
2018-03-06T09:30:27.359Z,8.33
2018-03-06T09:32:29.684Z,8.36
2018-03-06T09:33:27.985Z,8.45
2018-03-06T09:34:28.439Z,8.55
2018-03-06T09:35:27.419Z,8.61
2018-03-06T09:36:27.048Z,8.61
2018-03-06T09:37:27.243Z,8.70
2018-03-06T09:38:27.319Z,8.70
2018-03-06T09:39:29.262Z,8.73
2018-03-06T09:40:27.151Z,8.74
2018-03-06T09:41:28.062Z,8.84
2018-03-06T09:42:32.174Z,8.97
2018-03-06T09:43:27.211Z,8.82
2018-03-06T09:44:27.258Z,9.04
2018-03-06T09:45:27.658Z,9.11
2018-03-06T09:46:27.165Z,9.11
2018-03-06T09:47:30.594Z,9.16
2018-03-06T09:48:30.053Z,9.31
2018-03-06T09:49:28.132Z,9.25
2018-03-06T09:50:27.608Z,9.48
2018-03-06T09:51:27.137Z,9.51
2018-03-06T09:52:27.123Z,9.64
2018-03-06T09:53:28.614Z,9.74
2018-03-06T09:54:27.078Z,9.86
2018-03-06T09:55:27.040Z,9.99
2018-03-06T09:56:26.964Z,10.13
2018-03-06T09:57:27.081Z,10.19
2018-03-06T09:58:30.332Z,10.26
2018-03-06T10:00:26.812Z,10.46
2018-03-06T10:01:26.864Z,10.41
2018-03-06T10:03:27.464Z,10.74
2018-03-06T10:04:27.052Z,10.90
2018-03-06T10:05:26.954Z,11.00
2018-03-06T10:06:28.329Z,10.93
2018-03-06T10:08:27.932Z,11.05
2018-03-06T10:13:09.558Z,11.02
2018-03-06T10:13:57.306Z,10.97
2018-03-06T10:16:58.848Z,10.74
2018-03-06T11:30:47.140Z,9.28
2018-03-06T11:33:05.611Z,9.19
2018-03-06T11:33:39.049Z,9.26
2018-03-06T11:34:39.035Z,9.18
2018-03-06T11:35:39.099Z,9.22
2018-03-06T11:38:06.225Z,9.03
2018-03-06T11:38:42.727Z,9.04
2018-03-06T11:40:38.988Z,8.88
2018-03-06T11:41:38.898Z,8.87
2018-03-06T11:42:41.876Z,8.94
2018-03-06T11:43:48.861Z,8.87
2018-03-06T11:44:38.866Z,8.82
2018-03-06T11:45:38.806Z,8.84
2018-03-06T11:46:38.808Z,8.76
2018-03-06T11:47:42.348Z,8.76
2018-03-06T11:49:08.307Z,8.66
2018-03-06T11:57:53.633Z,8.45
2018-03-06T12:00:03.914Z,8.48
2018-03-06T12:01:03.662Z,8.42
2018-03-06T12:03:20.416Z,8.38
2018-03-06T12:05:12.426Z,8.45
2018-03-06T12:08:04.272Z,8.31
2018-03-06T12:09:04.135Z,8.38
2018-03-06T12:10:57.473Z,8.34
2018-03-06T12:11:57.178Z,8.37
2018-03-06T12:12:57.356Z,8.36
2018-03-06T12:15:01.056Z,8.31
2018-03-06T12:16:00.746Z,8.36
2018-03-06T12:16:57.967Z,8.36
2018-03-06T12:17:58.022Z,8.41
2018-03-06T12:18:57.459Z,8.28
2018-03-06T12:19:57.362Z,8.34
2018-03-06T12:23:57.398Z,8.42
2018-03-06T12:24:57.360Z,8.46
2018-03-06T12:28:57.386Z,8.66
2018-03-06T12:30:58.957Z,8.69
2018-03-06T12:32:57.312Z,8.78
2018-03-06T12:34:57.305Z,8.67
2018-03-06T12:35:58.331Z,8.66
2018-03-06T12:36:57.157Z,8.70
2018-03-06T12:38:58.124Z,8.63
2018-03-06T12:39:58.072Z,8.48
2018-03-06T12:40:57.396Z,8.63
2018-03-06T12:42:57.056Z,8.49
2018-03-06T12:43:57.321Z,8.52
2018-03-06T12:45:56.981Z,8.55
2018-03-06T12:47:56.874Z,8.51
2018-03-06T12:48:57.631Z,8.37
2018-03-06T12:49:57.070Z,8.38
2018-03-06T12:51:56.958Z,8.44
2018-03-06T12:52:57.261Z,8.37
2018-03-06T12:55:56.983Z,8.34
2018-03-06T12:57:56.862Z,8.28
2018-03-06T12:58:56.844Z,8.20
2018-03-06T12:59:56.820Z,8.27
2018-03-06T13:00:56.758Z,8.20
2018-03-06T13:01:56.821Z,8.16
2018-03-06T13:02:56.662Z,8.23
2018-03-06T13:03:56.821Z,8.16
2018-03-06T13:04:56.704Z,8.24
2018-03-06T13:05:56.834Z,8.12
2018-03-06T13:07:56.744Z,8.12
2018-03-06T13:09:56.351Z,8.12
2018-03-06T13:10:56.360Z,8.06
2018-03-06T13:11:56.610Z,8.06
2018-03-06T13:14:28.323Z,9.66
2018-03-06T13:15:29.883Z,10.63
2018-03-06T13:17:03.286Z,8.38
2018-03-06T13:18:02.705Z,8.41
